sensor_id;sensor_type;location;lat;lon;timestamp;P1;durP1;ratioP1;P2;durP2;ratioP2
73938;SDS011;62291;47.554;8.504;2023-12-20T00:00:35;11.57;;;8.57;;
73938;SDS011;62291;47.554;8.504;2023-12-20T00:03:02;15.32;;;9.32;;
73938;SDS011;62291;47.554;8.504;2023-12-20T00:05:29;12.00;;;8.55;;
73938;SDS011;62291;47.554;8.504;2023-12-20T00:07:57;13.80;;;8.73;;
73938;SDS011;62291;47.554;8.504;2023-12-20T00:10:23;13.95;;;8.95;;
73938;SDS011;62291;47.554;8.504;2023-12-20T00:12:48;12.25;;;9.15;;
73938;SDS011;62291;47.554;8.504;2023-12-20T00:15:14;12.95;;;8.27;;
73938;SDS011;62291;47.554;8.504;2023-12-20T00:17:39;12.38;;;9.15;;
73938;SDS011;62291;47.554;8.504;2023-12-20T00:20:05;13.70;;;9.35;;
73938;SDS011;62291;47.554;8.504;2023-12-20T00:22:32;12.75;;;8.70;;
73938;SDS011;62291;47.554;8.504;2023-12-20T00:24:57;12.30;;;8.25;;
73938;SDS011;62291;47.554;8.504;2023-12-20T00:27:23;11.90;;;8.70;;
73938;SDS011;62291;47.554;8.504;2023-12-20T00:29:49;15.20;;;9.18;;
73938;SDS011;62291;47.554;8.504;2023-12-20T00:32:15;11.70;;;9.13;;
73938;SDS011;62291;47.554;8.504;2023-12-20T00:34:41;14.00;;;9.23;;
73938;SDS011;62291;47.554;8.504;2023-12-20T00:37:08;13.20;;;9.65;;
73938;SDS011;62291;47.554;8.504;2023-12-20T00:39:33;12.68;;;8.98;;
73938;SDS011;62291;47.554;8.504;2023-12-20T00:41:59;12.45;;;8.93;;
73938;SDS011;62291;47.554;8.504;2023-12-20T00:44:25;14.88;;;8.98;;
73938;SDS011;62291;47.554;8.504;2023-12-20T00:46:51;13.98;;;9.35;;
73938;SDS011;62291;47.554;8.504;2023-12-20T00:49:17;12.82;;;9.25;;
73938;SDS011;62291;47.554;8.504;2023-12-20T00:51:43;13.68;;;9.93;;
73938;SDS011;62291;47.554;8.504;2023-12-20T00:54:08;13.73;;;10.05;;
73938;SDS011;62291;47.554;8.504;2023-12-20T00:56:34;12.88;;;8.80;;
73938;SDS011;62291;47.554;8.504;2023-12-20T00:59:00;13.82;;;9.30;;
73938;SDS011;62291;47.554;8.504;2023-12-20T01:01:26;14.07;;;9.85;;
73938;SDS011;62291;47.554;8.504;2023-12-20T01:03:52;13.93;;;9.85;;
73938;SDS011;62291;47.554;8.504;2023-12-20T01:06:18;16.55;;;9.63;;
73938;SDS011;62291;47.554;8.504;2023-12-20T01:08:44;14.25;;;9.45;;
73938;SDS011;62291;47.554;8.504;2023-12-20T01:11:10;14.02;;;10.05;;
73938;SDS011;62291;47.554;8.504;2023-12-20T01:13:35;14.00;;;10.07;;
73938;SDS011;62291;47.554;8.504;2023-12-20T01:16:01;18.45;;;10.10;;
73938;SDS011;62291;47.554;8.504;2023-12-20T01:18:27;14.63;;;9.65;;
73938;SDS011;62291;47.554;8.504;2023-12-20T01:20:53;13.38;;;10.07;;
73938;SDS011;62291;47.554;8.504;2023-12-20T01:23:19;14.88;;;10.43;;
73938;SDS011;62291;47.554;8.504;2023-12-20T01:25:44;13.45;;;9.77;;
73938;SDS011;62291;47.554;8.504;2023-12-20T01:28:10;15.13;;;9.65;;
73938;SDS011;62291;47.554;8.504;2023-12-20T01:30:36;14.60;;;9.98;;
73938;SDS011;62291;47.554;8.504;2023-12-20T01:33:01;13.15;;;9.52;;
73938;SDS011;62291;47.554;8.504;2023-12-20T01:35:27;14.32;;;9.38;;
73938;SDS011;62291;47.554;8.504;2023-12-20T01:37:53;14.63;;;9.88;;
73938;SDS011;62291;47.554;8.504;2023-12-20T01:40:22;15.35;;;10.45;;
73938;SDS011;62291;47.554;8.504;2023-12-20T01:42:57;15.07;;;10.10;;
73938;SDS011;62291;47.554;8.504;2023-12-20T01:45:27;15.50;;;10.80;;
73938;SDS011;62291;47.554;8.504;2023-12-20T01:47:53;17.85;;;10.93;;
73938;SDS011;62291;47.554;8.504;2023-12-20T01:50:23;15.30;;;10.88;;
73938;SDS011;62291;47.554;8.504;2023-12-20T01:52:49;14.75;;;10.60;;
73938;SDS011;62291;47.554;8.504;2023-12-20T01:55:17;15.27;;;10.32;;
73938;SDS011;62291;47.554;8.504;2023-12-20T01:57:44;15.60;;;10.77;;
73938;SDS011;62291;47.554;8.504;2023-12-20T02:00:12;13.82;;;9.80;;
73938;SDS011;62291;47.554;8.504;2023-12-20T02:02:40;15.23;;;10.85;;
73938;SDS011;62291;47.554;8.504;2023-12-20T02:05:06;15.43;;;11.23;;
73938;SDS011;62291;47.554;8.504;2023-12-20T02:07:33;14.52;;;10.57;;
73938;SDS011;62291;47.554;8.504;2023-12-20T02:10:02;15.77;;;10.35;;
73938;SDS011;62291;47.554;8.504;2023-12-20T02:12:29;15.20;;;10.77;;
73938;SDS011;62291;47.554;8.504;2023-12-20T02:14:55;15.10;;;10.98;;
73938;SDS011;62291;47.554;8.504;2023-12-20T02:17:21;15.00;;;10.68;;
73938;SDS011;62291;47.554;8.504;2023-12-20T02:19:47;14.55;;;10.70;;
73938;SDS011;62291;47.554;8.504;2023-12-20T02:22:13;16.40;;;11.25;;
73938;SDS011;62291;47.554;8.504;2023-12-20T02:24:39;13.45;;;10.02;;
73938;SDS011;62291;47.554;8.504;2023-12-20T02:27:05;15.30;;;10.27;;
73938;SDS011;62291;47.554;8.504;2023-12-20T02:29:32;15.68;;;10.05;;
73938;SDS011;62291;47.554;8.504;2023-12-20T02:31:58;16.02;;;10.88;;
73938;SDS011;62291;47.554;8.504;2023-12-20T02:34:24;14.88;;;11.05;;
73938;SDS011;62291;47.554;8.504;2023-12-20T02:36:50;16.38;;;10.68;;
73938;SDS011;62291;47.554;8.504;2023-12-20T02:39:15;15.68;;;11.02;;
73938;SDS011;62291;47.554;8.504;2023-12-20T02:41:41;16.33;;;11.20;;
73938;SDS011;62291;47.554;8.504;2023-12-20T02:44:07;15.30;;;10.63;;
73938;SDS011;62291;47.554;8.504;2023-12-20T02:46:33;15.52;;;10.75;;
73938;SDS011;62291;47.554;8.504;2023-12-20T02:48:58;14.45;;;10.77;;
73938;SDS011;62291;47.554;8.504;2023-12-20T02:51:24;15.90;;;10.75;;
73938;SDS011;62291;47.554;8.504;2023-12-20T02:53:50;15.93;;;9.73;;
73938;SDS011;62291;47.554;8.504;2023-12-20T02:56:15;14.18;;;9.85;;
73938;SDS011;62291;47.554;8.504;2023-12-20T02:58:41;15.88;;;10.20;;
73938;SDS011;62291;47.554;8.504;2023-12-20T03:01:07;13.45;;;9.80;;
73938;SDS011;62291;47.554;8.504;2023-12-20T03:03:32;15.32;;;9.80;;
73938;SDS011;62291;47.554;8.504;2023-12-20T03:05:58;14.63;;;10.00;;
73938;SDS011;62291;47.554;8.504;2023-12-20T03:08:24;16.05;;;10.25;;
73938;SDS011;62291;47.554;8.504;2023-12-20T03:10:50;13.95;;;9.82;;
73938;SDS011;62291;47.554;8.504;2023-12-20T03:13:16;16.58;;;10.27;;
73938;SDS011;62291;47.554;8.504;2023-12-20T03:15:41;15.15;;;10.23;;
73938;SDS011;62291;47.554;8.504;2023-12-20T03:18:07;16.45;;;11.32;;
73938;SDS011;62291;47.554;8.504;2023-12-20T03:20:33;16.05;;;11.38;;
73938;SDS011;62291;47.554;8.504;2023-12-20T03:23:02;17.00;;;12.10;;
73938;SDS011;62291;47.554;8.504;2023-12-20T03:25:28;18.65;;;13.15;;
73938;SDS011;62291;47.554;8.504;2023-12-20T03:27:54;20.58;;;12.07;;
73938;SDS011;62291;47.554;8.504;2023-12-20T03:30:20;18.65;;;12.52;;
73938;SDS011;62291;47.554;8.504;2023-12-20T03:32:46;17.88;;;12.88;;
73938;SDS011;62291;47.554;8.504;2023-12-20T03:35:15;20.80;;;13.38;;
73938;SDS011;62291;47.554;8.504;2023-12-20T03:37:40;19.92;;;14.02;;
73938;SDS011;62291;47.554;8.504;2023-12-20T03:40:06;18.95;;;13.43;;
73938;SDS011;62291;47.554;8.504;2023-12-20T03:42:32;21.70;;;13.85;;
73938;SDS011;62291;47.554;8.504;2023-12-20T03:44:58;20.48;;;14.30;;
73938;SDS011;62291;47.554;8.504;2023-12-20T03:47:23;21.23;;;15.18;;
73938;SDS011;62291;47.554;8.504;2023-12-20T03:49:49;22.83;;;16.15;;
73938;SDS011;62291;47.554;8.504;2023-12-20T03:52:14;22.92;;;16.23;;
73938;SDS011;62291;47.554;8.504;2023-12-20T03:54:40;24.83;;;16.42;;
73938;SDS011;62291;47.554;8.504;2023-12-20T03:57:09;23.42;;;16.30;;
73938;SDS011;62291;47.554;8.504;2023-12-20T03:59:35;23.20;;;16.15;;
73938;SDS011;62291;47.554;8.504;2023-12-20T04:02:02;23.52;;;16.80;;
73938;SDS011;62291;47.554;8.504;2023-12-20T04:04:27;22.17;;;16.45;;
73938;SDS011;62291;47.554;8.504;2023-12-20T04:06:53;27.17;;;17.40;;
73938;SDS011;62291;47.554;8.504;2023-12-20T04:09:19;25.02;;;17.60;;
73938;SDS011;62291;47.554;8.504;2023-12-20T04:11:45;22.80;;;16.48;;
73938;SDS011;62291;47.554;8.504;2023-12-20T04:14:10;24.58;;;17.75;;
73938;SDS011;62291;47.554;8.504;2023-12-20T04:16:36;25.33;;;17.98;;
73938;SDS011;62291;47.554;8.504;2023-12-20T04:19:02;26.92;;;18.08;;
73938;SDS011;62291;47.554;8.504;2023-12-20T04:21:27;25.33;;;17.15;;
73938;SDS011;62291;47.554;8.504;2023-12-20T04:23:53;25.23;;;17.02;;
73938;SDS011;62291;47.554;8.504;2023-12-20T04:26:19;24.08;;;17.35;;
73938;SDS011;62291;47.554;8.504;2023-12-20T04:28:44;24.80;;;16.38;;
73938;SDS011;62291;47.554;8.504;2023-12-20T04:31:10;26.02;;;17.65;;
73938;SDS011;62291;47.554;8.504;2023-12-20T04:33:36;24.23;;;16.75;;
73938;SDS011;62291;47.554;8.504;2023-12-20T04:36:01;24.85;;;17.77;;
73938;SDS011;62291;47.554;8.504;2023-12-20T04:38:28;24.33;;;17.48;;
73938;SDS011;62291;47.554;8.504;2023-12-20T04:40:53;24.23;;;17.30;;
73938;SDS011;62291;47.554;8.504;2023-12-20T04:43:19;25.52;;;17.85;;
73938;SDS011;62291;47.554;8.504;2023-12-20T04:45:45;24.73;;;17.33;;
73938;SDS011;62291;47.554;8.504;2023-12-20T04:48:10;26.42;;;18.27;;
73938;SDS011;62291;47.554;8.504;2023-12-20T04:50:37;27.83;;;17.38;;
73938;SDS011;62291;47.554;8.504;2023-12-20T04:53:02;25.55;;;17.83;;
73938;SDS011;62291;47.554;8.504;2023-12-20T04:55:28;26.65;;;18.33;;
73938;SDS011;62291;47.554;8.504;2023-12-20T04:57:54;26.30;;;18.60;;
73938;SDS011;62291;47.554;8.504;2023-12-20T05:00:20;26.52;;;18.67;;
73938;SDS011;62291;47.554;8.504;2023-12-20T05:02:45;28.25;;;19.40;;
73938;SDS011;62291;47.554;8.504;2023-12-20T05:05:11;28.20;;;19.38;;
73938;SDS011;62291;47.554;8.504;2023-12-20T05:07:37;27.25;;;19.48;;
73938;SDS011;62291;47.554;8.504;2023-12-20T05:10:03;26.50;;;18.98;;
73938;SDS011;62291;47.554;8.504;2023-12-20T05:12:33;25.63;;;18.10;;
73938;SDS011;62291;47.554;8.504;2023-12-20T05:14:59;29.65;;;19.20;;
73938;SDS011;62291;47.554;8.504;2023-12-20T05:17:25;30.30;;;20.42;;
73938;SDS011;62291;47.554;8.504;2023-12-20T05:19:50;27.10;;;19.80;;
73938;SDS011;62291;47.554;8.504;2023-12-20T05:22:16;26.20;;;19.05;;
73938;SDS011;62291;47.554;8.504;2023-12-20T05:24:43;27.27;;;18.65;;
73938;SDS011;62291;47.554;8.504;2023-12-20T05:27:09;29.42;;;19.83;;
73938;SDS011;62291;47.554;8.504;2023-12-20T05:29:34;26.33;;;18.60;;
73938;SDS011;62291;47.554;8.504;2023-12-20T05:32:00;25.70;;;18.63;;
73938;SDS011;62291;47.554;8.504;2023-12-20T05:34:26;23.92;;;17.50;;
73938;SDS011;62291;47.554;8.504;2023-12-20T05:36:51;26.67;;;18.83;;
73938;SDS011;62291;47.554;8.504;2023-12-20T05:39:17;26.00;;;18.55;;
73938;SDS011;62291;47.554;8.504;2023-12-20T05:41:43;25.90;;;18.30;;
73938;SDS011;62291;47.554;8.504;2023-12-20T05:44:08;24.00;;;17.83;;
73938;SDS011;62291;47.554;8.504;2023-12-20T05:46:35;26.02;;;18.40;;
73938;SDS011;62291;47.554;8.504;2023-12-20T05:49:01;27.10;;;18.67;;
73938;SDS011;62291;47.554;8.504;2023-12-20T05:51:27;25.13;;;18.65;;
73938;SDS011;62291;47.554;8.504;2023-12-20T05:53:53;25.60;;;18.08;;
73938;SDS011;62291;47.554;8.504;2023-12-20T05:56:18;25.60;;;18.75;;
73938;SDS011;62291;47.554;8.504;2023-12-20T05:58:44;24.50;;;18.23;;
73938;SDS011;62291;47.554;8.504;2023-12-20T06:01:10;25.05;;;17.67;;
73938;SDS011;62291;47.554;8.504;2023-12-20T06:03:36;26.27;;;18.85;;
73938;SDS011;62291;47.554;8.504;2023-12-20T06:06:07;26.85;;;18.58;;
73938;SDS011;62291;47.554;8.504;2023-12-20T06:08:34;28.15;;;19.13;;
73938;SDS011;62291;47.554;8.504;2023-12-20T06:10:59;25.65;;;17.77;;
73938;SDS011;62291;47.554;8.504;2023-12-20T06:13:25;25.35;;;17.63;;
73938;SDS011;62291;47.554;8.504;2023-12-20T06:15:52;28.30;;;19.88;;
73938;SDS011;62291;47.554;8.504;2023-12-20T06:18:19;26.42;;;18.10;;
73938;SDS011;62291;47.554;8.504;2023-12-20T06:20:45;25.80;;;17.30;;
73938;SDS011;62291;47.554;8.504;2023-12-20T06:23:10;25.00;;;16.00;;
73938;SDS011;62291;47.554;8.504;2023-12-20T06:25:36;19.95;;;14.23;;
73938;SDS011;62291;47.554;8.504;2023-12-20T06:28:02;20.38;;;14.18;;
73938;SDS011;62291;47.554;8.504;2023-12-20T06:30:28;21.75;;;15.15;;
73938;SDS011;62291;47.554;8.504;2023-12-20T06:32:53;25.05;;;16.63;;
73938;SDS011;62291;47.554;8.504;2023-12-20T06:35:20;24.80;;;16.50;;
73938;SDS011;62291;47.554;8.504;2023-12-20T06:37:45;24.38;;;17.42;;
73938;SDS011;62291;47.554;8.504;2023-12-20T06:40:11;23.50;;;16.25;;
73938;SDS011;62291;47.554;8.504;2023-12-20T06:42:37;24.30;;;16.98;;
73938;SDS011;62291;47.554;8.504;2023-12-20T06:45:03;25.75;;;17.63;;
73938;SDS011;62291;47.554;8.504;2023-12-20T06:47:29;27.67;;;18.85;;
73938;SDS011;62291;47.554;8.504;2023-12-20T06:49:55;26.65;;;17.88;;
73938;SDS011;62291;47.554;8.504;2023-12-20T06:52:21;28.90;;;18.95;;
73938;SDS011;62291;47.554;8.504;2023-12-20T06:54:47;27.38;;;17.25;;
73938;SDS011;62291;47.554;8.504;2023-12-20T06:57:12;29.92;;;20.70;;
73938;SDS011;62291;47.554;8.504;2023-12-20T06:59:41;28.33;;;19.58;;
73938;SDS011;62291;47.554;8.504;2023-12-20T07:02:08;31.50;;;19.70;;
73938;SDS011;62291;47.554;8.504;2023-12-20T07:04:34;31.02;;;19.23;;
73938;SDS011;62291;47.554;8.504;2023-12-20T07:07:03;23.55;;;15.98;;
73938;SDS011;62291;47.554;8.504;2023-12-20T07:09:29;24.90;;;17.10;;
73938;SDS011;62291;47.554;8.504;2023-12-20T07:11:55;26.98;;;17.85;;
73938;SDS011;62291;47.554;8.504;2023-12-20T07:14:21;30.33;;;18.50;;
73938;SDS011;62291;47.554;8.504;2023-12-20T07:16:46;25.25;;;17.80;;
73938;SDS011;62291;47.554;8.504;2023-12-20T07:19:12;24.45;;;16.67;;
73938;SDS011;62291;47.554;8.504;2023-12-20T07:21:38;20.13;;;14.20;;
73938;SDS011;62291;47.554;8.504;2023-12-20T07:24:04;19.73;;;14.30;;
73938;SDS011;62291;47.554;8.504;2023-12-20T07:26:29;19.95;;;13.77;;
73938;SDS011;62291;47.554;8.504;2023-12-20T07:28:55;18.35;;;12.13;;
73938;SDS011;62291;47.554;8.504;2023-12-20T07:31:21;19.38;;;13.77;;
73938;SDS011;62291;47.554;8.504;2023-12-20T07:33:47;19.42;;;12.80;;
73938;SDS011;62291;47.554;8.504;2023-12-20T07:36:12;19.30;;;12.90;;
73938;SDS011;62291;47.554;8.504;2023-12-20T07:38:38;21.33;;;14.38;;
73938;SDS011;62291;47.554;8.504;2023-12-20T07:41:04;20.08;;;13.88;;
73938;SDS011;62291;47.554;8.504;2023-12-20T07:43:30;19.25;;;13.30;;
73938;SDS011;62291;47.554;8.504;2023-12-20T07:45:55;16.10;;;12.02;;
73938;SDS011;62291;47.554;8.504;2023-12-20T07:48:21;18.65;;;13.25;;
73938;SDS011;62291;47.554;8.504;2023-12-20T07:50:47;16.95;;;12.90;;
73938;SDS011;62291;47.554;8.504;2023-12-20T07:53:12;19.85;;;13.95;;
73938;SDS011;62291;47.554;8.504;2023-12-20T07:55:39;18.52;;;13.10;;
73938;SDS011;62291;47.554;8.504;2023-12-20T07:58:04;20.75;;;14.25;;
73938;SDS011;62291;47.554;8.504;2023-12-20T08:00:30;18.73;;;13.00;;
73938;SDS011;62291;47.554;8.504;2023-12-20T08:02:56;20.92;;;13.38;;
73938;SDS011;62291;47.554;8.504;2023-12-20T08:05:21;19.58;;;13.55;;
73938;SDS011;62291;47.554;8.504;2023-12-20T08:07:47;18.90;;;13.13;;
73938;SDS011;62291;47.554;8.504;2023-12-20T08:10:13;19.60;;;14.90;;
73938;SDS011;62291;47.554;8.504;2023-12-20T08:12:39;18.10;;;13.40;;
73938;SDS011;62291;47.554;8.504;2023-12-20T08:15:05;17.48;;;13.02;;
73938;SDS011;62291;47.554;8.504;2023-12-20T08:17:31;17.48;;;12.25;;
73938;SDS011;62291;47.554;8.504;2023-12-20T08:19:57;15.75;;;11.70;;
73938;SDS011;62291;47.554;8.504;2023-12-20T08:22:22;16.60;;;12.68;;
73938;SDS011;62291;47.554;8.504;2023-12-20T08:24:48;16.30;;;12.23;;
73938;SDS011;62291;47.554;8.504;2023-12-20T08:27:14;13.95;;;11.00;;
73938;SDS011;62291;47.554;8.504;2023-12-20T08:29:40;14.85;;;11.07;;
73938;SDS011;62291;47.554;8.504;2023-12-20T08:32:05;16.58;;;11.77;;
73938;SDS011;62291;47.554;8.504;2023-12-20T08:34:31;15.18;;;11.27;;
73938;SDS011;62291;47.554;8.504;2023-12-20T08:36:57;14.43;;;11.32;;
73938;SDS011;62291;47.554;8.504;2023-12-20T08:39:22;17.13;;;12.52;;
73938;SDS011;62291;47.554;8.504;2023-12-20T08:41:48;14.85;;;11.88;;
73938;SDS011;62291;47.554;8.504;2023-12-20T08:44:14;16.88;;;12.13;;
73938;SDS011;62291;47.554;8.504;2023-12-20T08:46:39;18.02;;;13.82;;
73938;SDS011;62291;47.554;8.504;2023-12-20T08:49:05;15.80;;;13.18;;
73938;SDS011;62291;47.554;8.504;2023-12-20T08:51:31;17.13;;;12.32;;
73938;SDS011;62291;47.554;8.504;2023-12-20T08:53:56;15.48;;;11.90;;
73938;SDS011;62291;47.554;8.504;2023-12-20T08:56:22;16.77;;;12.45;;
73938;SDS011;62291;47.554;8.504;2023-12-20T08:58:48;14.82;;;11.45;;
73938;SDS011;62291;47.554;8.504;2023-12-20T09:01:14;13.80;;;10.73;;
73938;SDS011;62291;47.554;8.504;2023-12-20T09:03:40;13.80;;;10.75;;
73938;SDS011;62291;47.554;8.504;2023-12-20T09:06:06;14.45;;;10.13;;
73938;SDS011;62291;47.554;8.504;2023-12-20T09:08:32;12.48;;;10.30;;
73938;SDS011;62291;47.554;8.504;2023-12-20T09:10:58;13.07;;;10.95;;
73938;SDS011;62291;47.554;8.504;2023-12-20T09:13:24;12.63;;;10.00;;
73938;SDS011;62291;47.554;8.504;2023-12-20T09:15:54;14.85;;;11.45;;
73938;SDS011;62291;47.554;8.504;2023-12-20T09:18:20;15.38;;;11.75;;
73938;SDS011;62291;47.554;8.504;2023-12-20T09:20:46;13.05;;;10.18;;
73938;SDS011;62291;47.554;8.504;2023-12-20T09:23:12;12.93;;;10.52;;
73938;SDS011;62291;47.554;8.504;2023-12-20T09:25:37;9.77;;;8.48;;
73938;SDS011;62291;47.554;8.504;2023-12-20T09:28:03;10.13;;;8.38;;
73938;SDS011;62291;47.554;8.504;2023-12-20T09:30:29;10.23;;;8.48;;
73938;SDS011;62291;47.554;8.504;2023-12-20T09:32:55;13.07;;;9.57;;
73938;SDS011;62291;47.554;8.504;2023-12-20T09:35:21;12.52;;;8.40;;
73938;SDS011;62291;47.554;8.504;2023-12-20T09:37:47;10.82;;;8.23;;
73938;SDS011;62291;47.554;8.504;2023-12-20T09:40:13;6.82;;;5.97;;
73938;SDS011;62291;47.554;8.504;2023-12-20T09:45:10;9.07;;;7.18;;
73938;SDS011;62291;47.554;8.504;2023-12-20T09:47:40;6.65;;;5.07;;
73938;SDS011;62291;47.554;8.504;2023-12-20T09:50:07;6.32;;;4.50;;
73938;SDS011;62291;47.554;8.504;2023-12-20T09:52:34;4.85;;;4.35;;
73938;SDS011;62291;47.554;8.504;2023-12-20T09:55:01;4.45;;;3.97;;
73938;SDS011;62291;47.554;8.504;2023-12-20T09:57:31;3.85;;;3.42;;
73938;SDS011;62291;47.554;8.504;2023-12-20T09:59:57;4.93;;;3.88;;
73938;SDS011;62291;47.554;8.504;2023-12-20T10:02:24;4.60;;;3.38;;
73938;SDS011;62291;47.554;8.504;2023-12-20T10:04:54;4.00;;;3.55;;
73938;SDS011;62291;47.554;8.504;2023-12-20T10:07:21;5.85;;;3.65;;
73938;SDS011;62291;47.554;8.504;2023-12-20T10:09:47;4.82;;;3.85;;
73938;SDS011;62291;47.554;8.504;2023-12-20T10:12:13;4.50;;;3.50;;
73938;SDS011;62291;47.554;8.504;2023-12-20T10:14:39;5.35;;;3.80;;
73938;SDS011;62291;47.554;8.504;2023-12-20T10:17:05;3.95;;;3.55;;
73938;SDS011;62291;47.554;8.504;2023-12-20T10:19:32;5.80;;;3.67;;
73938;SDS011;62291;47.554;8.504;2023-12-20T10:21:59;3.80;;;3.20;;
73938;SDS011;62291;47.554;8.504;2023-12-20T10:24:25;4.53;;;2.58;;
73938;SDS011;62291;47.554;8.504;2023-12-20T10:27:01;4.97;;;2.90;;
73938;SDS011;62291;47.554;8.504;2023-12-20T10:29:36;2.05;;;1.85;;
73938;SDS011;62291;47.554;8.504;2023-12-20T10:32:21;2.97;;;2.33;;
73938;SDS011;62291;47.554;8.504;2023-12-20T10:34:51;3.53;;;2.20;;
73938;SDS011;62291;47.554;8.504;2023-12-20T10:37:18;2.13;;;1.80;;
73938;SDS011;62291;47.554;8.504;2023-12-20T10:39:46;2.22;;;2.03;;
73938;SDS011;62291;47.554;8.504;2023-12-20T10:42:17;3.85;;;2.10;;
73938;SDS011;62291;47.554;8.504;2023-12-20T10:44:46;4.03;;;1.90;;
73938;SDS011;62291;47.554;8.504;2023-12-20T10:47:12;2.58;;;2.20;;
73938;SDS011;62291;47.554;8.504;2023-12-20T10:49:38;2.38;;;1.73;;
73938;SDS011;62291;47.554;8.504;2023-12-20T10:52:05;2.60;;;2.10;;
73938;SDS011;62291;47.554;8.504;2023-12-20T10:54:32;2.25;;;1.60;;
73938;SDS011;62291;47.554;8.504;2023-12-20T10:56:58;2.20;;;1.58;;
73938;SDS011;62291;47.554;8.504;2023-12-20T10:59:25;2.55;;;1.58;;
73938;SDS011;62291;47.554;8.504;2023-12-20T11:01:54;2.38;;;1.60;;
73938;SDS011;62291;47.554;8.504;2023-12-20T11:04:35;1.30;;;1.05;;
73938;SDS011;62291;47.554;8.504;2023-12-20T11:07:32;2.43;;;1.70;;
73938;SDS011;62291;47.554;8.504;2023-12-20T11:10:22;1.35;;;1.02;;
73938;SDS011;62291;47.554;8.504;2023-12-20T11:12:53;1.58;;;1.27;;
73938;SDS011;62291;47.554;8.504;2023-12-20T11:15:24;2.70;;;1.40;;
73938;SDS011;62291;47.554;8.504;2023-12-20T11:17:56;2.20;;;1.40;;
73938;SDS011;62291;47.554;8.504;2023-12-20T11:20:24;1.40;;;1.27;;
73938;SDS011;62291;47.554;8.504;2023-12-20T11:22:59;2.38;;;1.50;;
73938;SDS011;62291;47.554;8.504;2023-12-20T11:25:26;1.67;;;1.40;;
73938;SDS011;62291;47.554;8.504;2023-12-20T11:28:08;3.53;;;1.75;;
73938;SDS011;62291;47.554;8.504;2023-12-20T11:30:48;2.03;;;1.60;;
73938;SDS011;62291;47.554;8.504;2023-12-20T11:33:21;2.88;;;1.63;;
73938;SDS011;62291;47.554;8.504;2023-12-20T11:36:01;1.60;;;1.30;;
73938;SDS011;62291;47.554;8.504;2023-12-20T11:38:35;2.55;;;1.48;;
73938;SDS011;62291;47.554;8.504;2023-12-20T11:41:04;2.25;;;1.52;;
73938;SDS011;62291;47.554;8.504;2023-12-20T11:43:31;1.70;;;1.38;;
73938;SDS011;62291;47.554;8.504;2023-12-20T11:46:06;1.85;;;1.00;;
73938;SDS011;62291;47.554;8.504;2023-12-20T11:48:34;1.70;;;1.30;;
73938;SDS011;62291;47.554;8.504;2023-12-20T11:51:01;2.63;;;1.40;;
73938;SDS011;62291;47.554;8.504;2023-12-20T11:53:29;2.25;;;1.17;;
73938;SDS011;62291;47.554;8.504;2023-12-20T11:55:56;3.15;;;1.50;;
73938;SDS011;62291;47.554;8.504;2023-12-20T11:58:22;2.35;;;1.30;;
73938;SDS011;62291;47.554;8.504;2023-12-20T12:00:48;2.42;;;1.35;;
73938;SDS011;62291;47.554;8.504;2023-12-20T12:03:15;2.25;;;1.20;;
73938;SDS011;62291;47.554;8.504;2023-12-20T12:05:41;1.70;;;1.13;;
73938;SDS011;62291;47.554;8.504;2023-12-20T12:08:06;1.70;;;1.05;;
73938;SDS011;62291;47.554;8.504;2023-12-20T12:10:33;1.40;;;1.08;;
73938;SDS011;62291;47.554;8.504;2023-12-20T12:12:59;1.45;;;1.00;;
73938;SDS011;62291;47.554;8.504;2023-12-20T12:15:25;1.30;;;0.90;;
73938;SDS011;62291;47.554;8.504;2023-12-20T12:17:54;1.83;;;1.00;;
73938;SDS011;62291;47.554;8.504;2023-12-20T12:20:24;1.73;;;1.00;;
73938;SDS011;62291;47.554;8.504;2023-12-20T12:25:29;1.13;;;0.90;;
73938;SDS011;62291;47.554;8.504;2023-12-20T12:27:56;1.60;;;0.90;;
73938;SDS011;62291;47.554;8.504;2023-12-20T12:30:22;2.83;;;1.30;;
73938;SDS011;62291;47.554;8.504;2023-12-20T12:32:48;2.03;;;1.20;;
73938;SDS011;62291;47.554;8.504;2023-12-20T12:35:15;2.22;;;1.02;;
73938;SDS011;62291;47.554;8.504;2023-12-20T12:37:41;1.75;;;1.10;;
73938;SDS011;62291;47.554;8.504;2023-12-20T12:40:09;2.05;;;1.20;;
73938;SDS011;62291;47.554;8.504;2023-12-20T12:42:36;2.03;;;1.10;;
73938;SDS011;62291;47.554;8.504;2023-12-20T12:45:06;4.10;;;1.20;;
73938;SDS011;62291;47.554;8.504;2023-12-20T12:47:32;2.17;;;1.15;;
73938;SDS011;62291;47.554;8.504;2023-12-20T12:49:59;3.60;;;1.17;;
73938;SDS011;62291;47.554;8.504;2023-12-20T12:52:24;2.85;;;1.58;;
73938;SDS011;62291;47.554;8.504;2023-12-20T12:54:51;2.92;;;1.30;;
73938;SDS011;62291;47.554;8.504;2023-12-20T12:57:17;3.13;;;1.38;;
73938;SDS011;62291;47.554;8.504;2023-12-20T12:59:44;3.15;;;1.42;;
73938;SDS011;62291;47.554;8.504;2023-12-20T13:02:11;2.00;;;1.10;;
73938;SDS011;62291;47.554;8.504;2023-12-20T13:04:38;2.55;;;1.40;;
73938;SDS011;62291;47.554;8.504;2023-12-20T13:07:05;1.80;;;1.42;;
73938;SDS011;62291;47.554;8.504;2023-12-20T13:09:31;3.63;;;1.38;;
73938;SDS011;62291;47.554;8.504;2023-12-20T13:11:57;4.20;;;1.48;;
73938;SDS011;62291;47.554;8.504;2023-12-20T13:14:23;2.90;;;1.70;;
73938;SDS011;62291;47.554;8.504;2023-12-20T13:16:49;2.63;;;1.60;;
73938;SDS011;62291;47.554;8.504;2023-12-20T13:19:15;3.70;;;1.98;;
73938;SDS011;62291;47.554;8.504;2023-12-20T13:21:40;4.63;;;1.90;;
73938;SDS011;62291;47.554;8.504;2023-12-20T13:24:06;5.22;;;1.70;;
73938;SDS011;62291;47.554;8.504;2023-12-20T13:26:32;2.47;;;1.73;;
73938;SDS011;62291;47.554;8.504;2023-12-20T13:28:58;2.20;;;1.52;;
73938;SDS011;62291;47.554;8.504;2023-12-20T13:31:24;2.33;;;1.60;;
73938;SDS011;62291;47.554;8.504;2023-12-20T13:33:49;4.82;;;1.90;;
73938;SDS011;62291;47.554;8.504;2023-12-20T13:36:17;2.65;;;1.85;;
73938;SDS011;62291;47.554;8.504;2023-12-20T13:38:46;4.63;;;1.90;;
73938;SDS011;62291;47.554;8.504;2023-12-20T13:41:12;3.03;;;1.70;;
73938;SDS011;62291;47.554;8.504;2023-12-20T13:43:37;4.25;;;2.20;;
73938;SDS011;62291;47.554;8.504;2023-12-20T13:46:03;6.10;;;2.28;;
73938;SDS011;62291;47.554;8.504;2023-12-20T13:48:29;4.22;;;1.98;;
73938;SDS011;62291;47.554;8.504;2023-12-20T13:50:54;3.88;;;1.70;;
73938;SDS011;62291;47.554;8.504;2023-12-20T13:53:20;3.60;;;2.03;;
73938;SDS011;62291;47.554;8.504;2023-12-20T13:55:46;5.47;;;2.22;;
73938;SDS011;62291;47.554;8.504;2023-12-20T13:58:11;4.95;;;2.17;;
73938;SDS011;62291;47.554;8.504;2023-12-20T14:00:37;4.10;;;2.10;;
73938;SDS011;62291;47.554;8.504;2023-12-20T14:03:03;7.75;;;2.40;;
73938;SDS011;62291;47.554;8.504;2023-12-20T14:05:29;2.80;;;1.90;;
73938;SDS011;62291;47.554;8.504;2023-12-20T14:07:56;2.88;;;1.98;;
73938;SDS011;62291;47.554;8.504;2023-12-20T14:10:25;5.55;;;1.70;;
73938;SDS011;62291;47.554;8.504;2023-12-20T14:12:54;4.63;;;1.77;;
73938;SDS011;62291;47.554;8.504;2023-12-20T14:15:20;5.53;;;1.65;;
73938;SDS011;62291;47.554;8.504;2023-12-20T14:17:50;4.43;;;1.73;;
73938;SDS011;62291;47.554;8.504;2023-12-20T14:20:16;4.15;;;1.73;;
73938;SDS011;62291;47.554;8.504;2023-12-20T14:22:42;5.10;;;1.60;;
73938;SDS011;62291;47.554;8.504;2023-12-20T14:25:11;5.57;;;1.80;;
73938;SDS011;62291;47.554;8.504;2023-12-20T14:27:41;5.75;;;1.90;;
73938;SDS011;62291;47.554;8.504;2023-12-20T14:30:08;5.10;;;1.60;;
73938;SDS011;62291;47.554;8.504;2023-12-20T14:32:34;4.72;;;1.35;;